EGOM

RAF Spadeadam Airport

Spadeadam, United Kingdom
METAR EGOM 140050Z AUTO 11009KT 9999 NCD 01/M02 Q1021
Observed Flight Rules
Dec-14 @ 00:50 UTC (60 minutes ago) Visual Flight Rules
Wind Visibility Clouds
110° at 9 knots 10,000+ meters
  • Clear skies
Temperatures Readings
Current 1°C / 34°F
Dewpoint -2°C / 28°F
Humidity 81%
Altimeter 30.15" Hg
Pressure 1021 hPa
Elevation 325
METAR EGOM 140050Z AUTO 11009KT 9999 NCD 01/M02 Q1021
Observed Flight Rules
Dec-14 @ 00:50 UTC
(60 minutes ago)
VFR
Wind Visibility
110° at 9 knots 10,000+ meters
Clouds
  • Clear skies
Temperature Dewpoint
1°C / 34°F -2°C / 28°F
Humidity Altimeter Pressure
81% 30.15" Hg 1021 hPa